Ridgecrest, CA

8:55 AM PST on December 18, 2014 (GMT -0800)
Edwards AFB North Base | Change Station
CLOSE
Current Station
Airport
Location: Edwards AFB North Base,
Elevation: 2300 ft
Nearby Weather Stations

Elev 2300 ft 34.99 °N, 117.86 °W | Updated 1 hour ago

Overcast
Overcast
37 °F
Feels Like 32 °F
N
6
Wind Variable Wind from North

Today
High -- | Low -- °F
--% Chance of Precip.
Yesterday
High -- | Low -- °F
Precip. -- in
6:54 AM 4:40 PM
Waning Crescent, 13% visible
Pressure 30.19 in
Visibility 10.0 miles
Clouds Clear
Windchill 32 °F
Dew Point 33 °F
Humidity 86%
Rainfall 0.00 in
Snow Depth Not available.
UV 0 out of 12
Pollen 3.30 out of 12
Air Quality Not available.
Flu Activity Not available.
METAR K9L2 181555Z AUTO 01005KT 10SM CLR 03/01 A3015 RMK AO2 SLP223 T00280006 TSNO $

More Conditions Fewer Conditions

Pressure 30.19 in
Visibility 10.0 miles
Clouds Clear
Windchill 32 °F
Dew Point 33 °F
Humidity 86%
Rainfall 0.00 in
Snow Depth Not available.
UV 0 out of 12
Pollen 3.30 out of 12
Air Quality Not available.
Flu Activity Not available.
METAR K9L2 181555Z AUTO 01005KT 10SM CLR 03/01 A3015 RMK AO2 SLP223 T00280006 TSNO $

More Conditions Fewer Conditions

10-Day Weather Forecast

Almanac

Astronomy

Dec. 18, 2014 Rise Set
Actual Time
Civil Twilight
Nautical Twilight
Astronomical Twilight
Moon
Length of Visible Light
Length of Day
Tomorrow will be .
, % of the Moon is Illuminated

Today's Extremes

State Highs State Lows

Community

WunderPhotos

Upload Photos

1,778,960 photos uploaded!

WunderBlogs® & News

Nearby

Air Quality

  Air Quality AQ Index Pollutant
Not available.

Snow Depth

Station Depth Elevation

Earthquake Activity

City Distance Mag. Time & Date
Minimum magnitude displayed is 2.5.

Coastal Water Temperatures

Place Temperature

Nearby Weather Stations